Edson Airport
CYET : rendu visible

Aérodrome :











RETROUVEZ-NOUS SUR...

 
LOGIN :

S'inscrire | Disclaimer

   EN    FR    IT 

 









Légende :    VFR   VFR Marginal   IFR   IFR Intensif   IFR Très Intensif
Visi : 
Plafond : 
>= 8 km
>= 3000ft
5 à 8 km
1000 à 3000 ft
1500m à 5 km
500 à 1000 ft
800 à 1500m
200 à 500 ft
< 800m
< 200 ft
Symboles :   Orages  Brouillard  Fortes neiges  Fortes précipitations  Vent > 20 kt






- Altitude de l'aérodrome : 3041 ft
- Code IATA : YET


CYET - Edson

DERNIER METAR :
  • 301724Z AUTO 07011KT 2 1/4SM -SN BKN020 OVC030 M11/M13 A2987 RMK SLP177

METARs EXPIRÉS :
  • 301700Z AUTO 07011KT 3SM -SN BKN022 OVC028 M11/M13 A2988 RMK SLP179
  • 301636Z AUTO 08010G15KT 3SM -SN SCT012 OVC022 M11/M13 A2988 RMK SLP176
  • 301622Z AUTO 07008KT 3SM -SN SCT012 OVC024 M11/M13 A2988 RMK SLP176
  • 301600Z AUTO 06009KT 2 1/2SM -SN FEW012 SCT018 OVC028 M11/M13 A2988 RMK SLP177
  • 301437Z AUTO 04006KT 3SM -SN SCT020 OVC026 M11/M13 A2989 RMK SLP182

TAF N/A



MET'MAP, la Météo Aéronautique d'un coup d'oeil ! - Copyright ORBIFLY Décembre 2007 - Disclaimer

ORBIFLY MET'MAP TEAM :

Programmation & Développement : Alexandra Zaïnal
Sur une idée originale de : Baudouin d'Aumeries
Assistance à la programmation : Marc-Olivier Méhu
Soutien technique & logistique : Manuel Goepfert

Contact : metmap@orbifly.com




SOURCES & CREDITS :

   NOAA       Earth
Advisory